createdAt,value
2022-09-17T00:01:07.633Z,98254.16
2022-09-17T00:03:36.315Z,98253.31
2022-09-17T00:06:09.006Z,98246.75
2022-09-17T00:08:38.368Z,98250.00
2022-09-17T00:11:10.011Z,98255.63
2022-09-17T00:13:37.248Z,98254.47
2022-09-17T00:16:04.003Z,98256.63
2022-09-17T00:18:30.711Z,98259.25
2022-09-17T00:20:57.643Z,98266.31
2022-09-17T00:23:24.395Z,98263.84
2022-09-17T00:25:50.980Z,98264.50
2022-09-17T00:28:17.592Z,98267.13
2022-09-17T00:30:46.000Z,98269.09
2022-09-17T00:33:15.529Z,98272.56
2022-09-17T00:35:43.057Z,98281.59
2022-09-17T00:38:10.745Z,98265.84
2022-09-17T00:40:37.952Z,98275.69
2022-09-17T00:43:04.950Z,98275.84
2022-09-17T00:45:32.658Z,98274.50
2022-09-17T00:48:02.597Z,98276.03
2022-09-17T00:50:29.331Z,98268.91
2022-09-17T00:52:59.416Z,98262.34
2022-09-17T00:55:32.752Z,98266.13
2022-09-17T00:58:01.486Z,98270.75
2022-09-17T01:00:29.710Z,98274.66
2022-09-17T01:02:57.014Z,98270.72
2022-09-17T01:05:54.564Z,98264.16
2022-09-17T01:08:51.591Z,98278.00
2022-09-17T01:11:52.017Z,98270.41
2022-09-17T01:15:08.923Z,98277.66
2022-09-17T01:18:10.884Z,98271.38
2022-09-17T01:20:59.198Z,98275.66
2022-09-17T01:23:55.234Z,98277.28
2022-09-17T01:27:00.182Z,98275.34
2022-09-17T01:29:56.326Z,98276.34
2022-09-17T01:32:33.751Z,98262.53
2022-09-17T01:35:43.654Z,98260.56
2022-09-17T01:38:33.079Z,98263.34
2022-09-17T01:41:09.330Z,98263.00
2022-09-17T01:43:59.640Z,98268.44
2022-09-17T01:46:36.357Z,98267.31
2022-09-17T01:49:05.543Z,98265.47
2022-09-17T01:51:41.158Z,98269.41
2022-09-17T01:54:24.534Z,98266.97
2022-09-17T01:57:04.835Z,98273.34
2022-09-17T01:59:41.511Z,98272.69
2022-09-17T02:02:15.983Z,98278.75
2022-09-17T02:04:47.549Z,98274.31
2022-09-17T02:07:22.831Z,98269.59
2022-09-17T02:10:11.750Z,98278.28
2022-09-17T02:12:45.572Z,98280.09
2022-09-17T02:15:19.425Z,98288.63
2022-09-17T02:17:53.908Z,98287.16
2022-09-17T02:20:23.905Z,98283.22
2022-09-17T02:22:57.014Z,98282.72
2022-09-17T02:25:38.053Z,98282.22
2022-09-17T02:28:27.148Z,98281.91
2022-09-17T02:30:54.767Z,98282.56
2022-09-17T02:33:23.680Z,98285.69
2022-09-17T02:35:50.741Z,98282.75
2022-09-17T02:38:29.677Z,98288.34
2022-09-17T02:41:06.186Z,98280.94
2022-09-17T02:43:43.728Z,98277.97
2022-09-17T02:46:38.668Z,98288.81
2022-09-17T02:49:30.764Z,98283.56
2022-09-17T02:52:07.523Z,98286.88
2022-09-17T02:54:58.907Z,98290.28
2022-09-17T02:57:46.593Z,98289.78
2022-09-17T03:00:17.218Z,98287.66
2022-09-17T03:03:22.747Z,98289.78
2022-09-17T03:05:50.283Z,98294.88
2022-09-17T03:08:21.382Z,98294.06
2022-09-17T03:10:50.958Z,98289.78
2022-09-17T03:13:19.636Z,98291.78
2022-09-17T03:15:46.806Z,98282.53
2022-09-17T03:18:14.390Z,98291.91
2022-09-17T03:20:41.193Z,98297.53
2022-09-17T03:23:08.592Z,98291.78
2022-09-17T03:25:37.358Z,98299.31
2022-09-17T03:28:05.359Z,98296.69
2022-09-17T03:30:33.193Z,98303.94
2022-09-17T03:33:00.093Z,98302.59
2022-09-17T03:35:27.084Z,98306.53
2022-09-17T03:37:55.320Z,98298.00
2022-09-17T03:40:22.765Z,98300.81
2022-09-17T03:42:50.739Z,98310.97
2022-09-17T03:45:17.417Z,98307.53
2022-09-17T03:47:44.577Z,98313.75
2022-09-17T03:50:12.706Z,98318.38
2022-09-17T03:52:39.617Z,98313.78
2022-09-17T03:55:07.036Z,98308.69
2022-09-17T03:57:33.947Z,98314.44
2022-09-17T04:00:01.758Z,98318.69
2022-09-17T04:02:30.101Z,98329.38
2022-09-17T04:04:57.347Z,98326.44
2022-09-17T04:07:24.085Z,98328.72
2022-09-17T04:09:52.348Z,98327.91
2022-09-17T04:12:19.928Z,98322.31
2022-09-17T04:14:47.049Z,98322.16
2022-09-17T04:17:19.378Z,98322.66
2022-09-17T04:19:47.055Z,98332.66
2022-09-17T04:22:14.444Z,98334.31
2022-09-17T04:24:41.232Z,98328.22
2022-09-17T04:27:09.084Z,98332.34
2022-09-17T04:29:38.056Z,98338.75
2022-09-17T04:32:05.567Z,98334.97
2022-09-17T04:34:33.928Z,98332.84
2022-09-17T04:37:01.468Z,98342.53
2022-09-17T04:39:28.589Z,98340.06
2022-09-17T04:41:56.546Z,98342.91
2022-09-17T04:44:23.668Z,98341.06
2022-09-17T04:46:51.865Z,98338.78
2022-09-17T04:49:18.863Z,98347.97
2022-09-17T04:51:46.045Z,98349.59
2022-09-17T04:54:16.399Z,98344.03
2022-09-17T04:56:47.970Z,98352.28
2022-09-17T04:59:18.029Z,98350.75
2022-09-17T05:01:47.493Z,98350.81
2022-09-17T05:04:18.808Z,98352.88
2022-09-17T05:06:48.805Z,98352.88
2022-09-17T05:09:18.850Z,98352.44
2022-09-17T05:11:48.295Z,98351.59
2022-09-17T05:14:15.481Z,98357.97
2022-09-17T05:16:43.416Z,98353.06
2022-09-17T05:19:10.594Z,98364.72
2022-09-17T05:21:40.411Z,98360.59
2022-09-17T05:24:08.458Z,98359.28
2022-09-17T05:26:41.256Z,98367.38
2022-09-17T05:29:10.319Z,98364.78
2022-09-17T05:31:38.997Z,98363.44
2022-09-17T05:34:07.818Z,98373.31
2022-09-17T05:36:35.478Z,98372.16
2022-09-17T05:39:03.760Z,98371.66
2022-09-17T05:41:30.463Z,98379.22
2022-09-17T05:44:00.682Z,98377.59
2022-09-17T05:46:28.644Z,98397.31
2022-09-17T05:48:58.918Z,98382.84
2022-09-17T05:51:28.049Z,98379.22
2022-09-17T05:53:57.066Z,98382.16
2022-09-17T05:56:24.563Z,98381.19
2022-09-17T05:58:57.116Z,98384.16
2022-09-17T06:01:25.008Z,98391.53
2022-09-17T06:03:52.620Z,98397.00
2022-09-17T06:06:19.673Z,98390.22
2022-09-17T06:08:47.914Z,98399.13
2022-09-17T06:11:16.837Z,98410.78
2022-09-17T06:13:44.059Z,98404.56
2022-09-17T06:16:10.952Z,98407.31
2022-09-17T06:18:37.794Z,98409.06
2022-09-17T06:21:06.435Z,98414.38
2022-09-17T06:23:39.127Z,98421.59
2022-09-17T06:26:08.858Z,98418.81
2022-09-17T06:28:41.711Z,98421.94
2022-09-17T06:31:10.988Z,98423.44
2022-09-17T06:33:39.373Z,98437.41
2022-09-17T06:36:13.898Z,98419.69
2022-09-17T06:38:42.482Z,98434.78
2022-09-17T06:41:10.944Z,98435.13
2022-09-17T06:43:38.341Z,98437.75
2022-09-17T06:46:10.524Z,98425.13
2022-09-17T06:48:38.757Z,98427.41
2022-09-17T06:51:09.218Z,98436.91
2022-09-17T06:53:38.053Z,98438.59
2022-09-17T06:56:07.060Z,98434.16
2022-09-17T06:58:37.422Z,98432.47
2022-09-17T07:01:06.013Z,98440.56
2022-09-17T07:03:33.949Z,98441.22
2022-09-17T07:06:01.203Z,98446.97
2022-09-17T07:08:28.655Z,98444.84
2022-09-17T07:10:57.548Z,98447.31
2022-09-17T07:13:25.457Z,98443.69
2022-09-17T07:15:56.953Z,98446.63
2022-09-17T07:18:24.354Z,98451.25
2022-09-17T07:21:05.027Z,98443.84
2022-09-17T07:23:35.400Z,98448.44
2022-09-17T07:26:07.034Z,98445.66
2022-09-17T07:28:34.353Z,98454.53
2022-09-17T07:31:12.459Z,98455.69
2022-09-17T07:33:42.687Z,98450.44
2022-09-17T07:36:14.299Z,98447.63
2022-09-17T07:38:41.684Z,98445.34
2022-09-17T07:41:14.734Z,98444.38
2022-09-17T07:43:44.227Z,98452.09
2022-09-17T07:46:18.567Z,98447.63
2022-09-17T07:48:46.538Z,98452.03
2022-09-17T07:51:22.375Z,98456.47
2022-09-17T07:53:53.845Z,98459.75
2022-09-17T07:56:21.179Z,98468.06
2022-09-17T07:58:48.110Z,98457.03
2022-09-17T08:01:17.421Z,98469.25
2022-09-17T08:03:49.025Z,98469.63
2022-09-17T08:06:19.839Z,98463.81
2022-09-17T08:08:49.272Z,98461.97
2022-09-17T08:11:38.009Z,98468.41
2022-09-17T08:14:06.014Z,98455.91
2022-09-17T08:16:34.644Z,98460.22
2022-09-17T08:19:04.425Z,98449.53
2022-09-17T08:21:32.435Z,98453.53
2022-09-17T08:24:00.047Z,98441.38
2022-09-17T08:26:28.177Z,98461.09
2022-09-17T08:28:56.713Z,98449.22
2022-09-17T08:31:26.744Z,98458.13
2022-09-17T08:33:54.993Z,98455.66
2022-09-17T08:36:24.090Z,98476.50
2022-09-17T08:38:56.313Z,98467.19
2022-09-17T08:41:42.830Z,98477.06
2022-09-17T08:44:27.680Z,98473.81
2022-09-17T08:47:06.473Z,98478.47
2022-09-17T08:49:42.591Z,98485.16
2022-09-17T08:52:36.785Z,98479.13
2022-09-17T08:55:35.352Z,98482.59
2022-09-17T08:58:30.464Z,98485.22
2022-09-17T09:02:02.323Z,98492.16
2022-09-17T09:04:57.637Z,98477.28
2022-09-17T09:07:29.589Z,98476.13
2022-09-17T09:10:17.526Z,98477.16
2022-09-17T09:12:45.430Z,98478.25
2022-09-17T09:15:40.463Z,98485.84
2022-09-17T09:18:20.192Z,98476.44
2022-09-17T09:20:55.862Z,98492.28
2022-09-17T09:23:48.020Z,98487.44
2022-09-17T09:26:22.026Z,98492.28
2022-09-17T09:29:15.242Z,98493.88
2022-09-17T09:32:01.626Z,98486.91
2022-09-17T09:34:29.783Z,98487.59
2022-09-17T09:37:11.160Z,98484.84
2022-09-17T09:39:45.708Z,98478.19
2022-09-17T09:42:34.127Z,98474.59
2022-09-17T09:45:06.799Z,98481.19
2022-09-17T09:47:59.782Z,98499.56
2022-09-17T09:51:04.547Z,98496.09
2022-09-17T09:54:18.486Z,98494.00
2022-09-17T09:56:55.467Z,98491.16
2022-09-17T09:59:23.532Z,98489.00
2022-09-17T10:01:50.663Z,98487.78
2022-09-17T10:04:23.213Z,98479.16
2022-09-17T10:07:11.256Z,98476.50
2022-09-17T10:09:39.980Z,98477.13
2022-09-17T10:12:24.942Z,98484.34
2022-09-17T10:14:52.156Z,98493.34
2022-09-17T10:17:27.129Z,98492.91
2022-09-17T10:20:23.307Z,98495.44
2022-09-17T10:22:52.455Z,98493.00
2022-09-17T10:25:32.529Z,98502.22
2022-09-17T10:28:02.317Z,98495.31
2022-09-17T10:30:31.705Z,98498.25
2022-09-17T10:33:26.520Z,98495.91
2022-09-17T10:35:58.463Z,98490.50
2022-09-17T10:38:34.875Z,98491.81
2022-09-17T10:41:23.694Z,98491.66
2022-09-17T10:43:52.544Z,98489.72
2022-09-17T10:46:30.010Z,98491.63
2022-09-17T10:49:30.278Z,98490.13
2022-09-17T10:52:14.147Z,98495.25
2022-09-17T10:55:09.883Z,98492.78
2022-09-17T10:58:07.718Z,98504.13
2022-09-17T11:01:07.976Z,98507.88
2022-09-17T11:04:00.232Z,98485.34
2022-09-17T11:06:56.430Z,98484.31
2022-09-17T11:09:50.060Z,98479.88
2022-09-17T11:21:40.297Z,98466.13
2022-09-17T11:24:38.878Z,98469.53
2022-09-17T11:27:22.206Z,98489.72
2022-09-17T11:30:14.906Z,98525.94
2022-09-17T11:32:55.145Z,98501.25
2022-09-17T11:35:49.390Z,98485.31
2022-09-17T11:38:23.887Z,98477.88
2022-09-17T11:41:05.116Z,98476.81
2022-09-17T11:43:35.293Z,98482.03
2022-09-17T11:46:26.809Z,98478.00
2022-09-17T11:49:05.651Z,98469.00
2022-09-17T11:51:36.936Z,98466.59
2022-09-17T11:54:28.163Z,98464.28
2022-09-17T11:57:20.599Z,98463.69
2022-09-17T12:00:17.157Z,98459.72
2022-09-17T12:03:16.281Z,98456.97
2022-09-17T12:05:53.462Z,98455.00
2022-09-17T12:08:58.525Z,98453.34
2022-09-17T12:11:52.869Z,98450.88
2022-09-17T12:14:29.376Z,98438.56
2022-09-17T12:16:59.019Z,98439.03
2022-09-17T12:19:43.417Z,98436.56
2022-09-17T12:22:16.960Z,98430.75
2022-09-17T12:24:45.997Z,98433.56
2022-09-17T12:27:47.090Z,98423.81
2022-09-17T12:30:20.656Z,98427.25
2022-09-17T12:33:21.979Z,98428.09
2022-09-17T12:36:17.364Z,98445.84
2022-09-17T12:39:02.863Z,98450.88
2022-09-17T12:42:02.782Z,98431.84
2022-09-17T12:44:45.561Z,98443.94
2022-09-17T12:47:24.724Z,98436.66
2022-09-17T12:50:29.874Z,98442.69
2022-09-17T12:53:23.976Z,98423.81
2022-09-17T12:56:11.784Z,98416.41
2022-09-17T12:59:05.817Z,98411.94
2022-09-17T13:01:56.373Z,98409.19
2022-09-17T13:05:05.508Z,98420.34
2022-09-17T13:08:14.371Z,98413.94
2022-09-17T13:14:20.882Z,98409.88
2022-09-17T13:17:15.590Z,98410.59
2022-09-17T13:22:59.232Z,98393.78
2022-09-17T13:25:27.848Z,98384.63
2022-09-17T13:28:10.491Z,98387.72
2022-09-17T13:31:01.626Z,98406.19
2022-09-17T13:34:00.152Z,98415.34
2022-09-17T13:36:54.177Z,98428.81
2022-09-17T13:40:01.821Z,98424.50
2022-09-17T13:42:46.969Z,98427.16
2022-09-17T13:45:18.989Z,98429.34
2022-09-17T13:48:04.161Z,98420.53
2022-09-17T13:50:35.716Z,98425.53
2022-09-17T13:53:28.229Z,98427.28
2022-09-17T13:55:59.867Z,98423.53
2022-09-17T13:58:27.519Z,98429.97
2022-09-17T14:01:02.461Z,98429.41
2022-09-17T14:03:51.874Z,98423.25
2022-09-17T14:06:20.403Z,98417.75
2022-09-17T14:08:54.838Z,98421.31
2022-09-17T14:11:40.228Z,98409.41
2022-09-17T14:14:27.241Z,98410.03
2022-09-17T14:16:55.071Z,98398.44
2022-09-17T14:19:38.585Z,98396.00
2022-09-17T14:22:17.501Z,98398.44
2022-09-17T14:24:45.015Z,98408.75
2022-09-17T14:27:53.548Z,98393.22
2022-09-17T14:30:23.807Z,98388.59
2022-09-17T14:33:22.992Z,98388.31
2022-09-17T14:36:02.484Z,98389.44
2022-09-17T14:38:35.168Z,98393.03
2022-09-17T14:41:06.750Z,98393.97
2022-09-17T14:44:04.339Z,98386.03
2022-09-17T14:46:33.977Z,98389.34
2022-09-17T14:49:28.093Z,98377.34
2022-09-17T14:52:00.696Z,98377.84
2022-09-17T14:54:36.678Z,98368.38
2022-09-17T14:57:25.288Z,98372.78
2022-09-17T14:59:55.471Z,98377.25
2022-09-17T15:02:48.940Z,98381.00
2022-09-17T15:05:35.423Z,98402.66
2022-09-17T15:08:23.549Z,98392.00
2022-09-17T15:10:56.215Z,98394.91
2022-09-17T15:13:30.790Z,98399.09
2022-09-17T15:16:15.066Z,98405.75
2022-09-17T15:18:44.204Z,98406.19
2022-09-17T15:21:32.236Z,98396.69
2022-09-17T15:24:07.772Z,98391.69
2022-09-17T15:26:42.570Z,98395.75
2022-09-17T15:29:14.483Z,98398.19
2022-09-17T15:31:41.750Z,98393.72
2022-09-17T15:34:12.807Z,98396.84
2022-09-17T15:36:41.728Z,98396.53
2022-09-17T15:39:31.385Z,98387.97
2022-09-17T15:42:00.096Z,98385.88
2022-09-17T15:44:31.069Z,98382.31
2022-09-17T15:47:38.059Z,98393.13
2022-09-17T15:50:32.483Z,98415.56
2022-09-17T15:53:15.945Z,98481.06
2022-09-17T15:55:48.599Z,98496.69
2022-09-17T15:58:32.342Z,98491.56
2022-09-17T16:01:33.517Z,98459.91
2022-09-17T16:04:29.267Z,98452.53
2022-09-17T16:07:14.487Z,98445.81
2022-09-17T16:09:51.421Z,98435.81
2022-09-17T16:12:26.452Z,98434.66
2022-09-17T16:14:56.031Z,98430.72
2022-09-17T16:17:44.708Z,98439.75
2022-09-17T16:20:23.458Z,98438.94
2022-09-17T16:22:54.613Z,98445.50
2022-09-17T16:25:27.729Z,98448.47
2022-09-17T16:27:58.459Z,98456.53
2022-09-17T16:30:28.313Z,98451.59
2022-09-17T16:32:58.349Z,98450.28
2022-09-17T16:35:27.665Z,98453.88
2022-09-17T16:37:58.642Z,98451.09
2022-09-17T16:40:29.673Z,98450.09
2022-09-17T16:43:02.003Z,98459.13
2022-09-17T16:45:31.559Z,98470.16
2022-09-17T16:48:00.497Z,98456.34
2022-09-17T16:50:28.366Z,98459.94
2022-09-17T16:52:56.293Z,98455.84
2022-09-17T16:55:25.236Z,98461.78
2022-09-17T16:57:52.193Z,98461.78
2022-09-17T17:00:21.348Z,98459.81
2022-09-17T17:02:56.675Z,98454.88
2022-09-17T17:05:25.446Z,98458.34
2022-09-17T17:07:55.217Z,98463.91
2022-09-17T17:10:29.347Z,98461.78
2022-09-17T17:12:56.673Z,98458.16
2022-09-17T17:15:24.628Z,98469.66
2022-09-17T17:17:53.835Z,98471.44
2022-09-17T17:20:22.700Z,98475.59
2022-09-17T17:22:53.353Z,98482.50
2022-09-17T17:25:21.086Z,98481.34
2022-09-17T17:27:49.045Z,98479.22
2022-09-17T17:30:17.819Z,98484.66
2022-09-17T17:32:47.729Z,98492.41
2022-09-17T17:35:15.087Z,98494.03
2022-09-17T17:37:45.270Z,98496.16
2022-09-17T17:40:14.368Z,98488.25
2022-09-17T17:42:45.208Z,98485.59
2022-09-17T17:45:14.834Z,98481.00
2022-09-17T17:47:44.673Z,98487.44
2022-09-17T17:50:15.106Z,98480.03
2022-09-17T17:52:48.522Z,98480.50
2022-09-17T17:55:19.169Z,98474.88
2022-09-17T17:57:48.022Z,98481.41
2022-09-17T18:00:18.182Z,98484.94
2022-09-17T18:02:46.218Z,98482.81
2022-09-17T18:05:14.170Z,98484.56
2022-09-17T18:07:42.517Z,98489.25
2022-09-17T18:10:10.173Z,98484.13
2022-09-17T18:12:41.749Z,98484.41
2022-09-17T18:15:09.105Z,98484.34
2022-09-17T18:17:38.633Z,98490.56
2022-09-17T18:20:11.312Z,98492.06
2022-09-17T18:22:40.286Z,98504.88
2022-09-17T18:25:10.891Z,98513.38
2022-09-17T18:27:40.804Z,98518.38
2022-09-17T18:30:09.495Z,98517.41
2022-09-17T18:32:37.654Z,98518.19
2022-09-17T18:35:06.187Z,98504.41
2022-09-17T18:37:32.986Z,98496.09
2022-09-17T18:40:02.177Z,98496.38
2022-09-17T18:42:30.265Z,98496.09
2022-09-17T18:44:59.063Z,98502.28
2022-09-17T18:47:27.029Z,98514.72
2022-09-17T18:49:55.239Z,98516.72
2022-09-17T18:52:22.071Z,98521.47
2022-09-17T18:54:49.715Z,98518.91
2022-09-17T18:57:19.939Z,98528.50
2022-09-17T18:59:49.262Z,98520.63
2022-09-17T19:02:18.229Z,98527.88
2022-09-17T19:04:46.319Z,98534.75
2022-09-17T19:07:14.257Z,98536.84
2022-09-17T19:09:41.023Z,98533.19
2022-09-17T19:12:09.273Z,98531.56
2022-09-17T19:14:38.057Z,98531.72
2022-09-17T19:17:06.437Z,98542.91
2022-09-17T19:19:33.782Z,98538.47
2022-09-17T19:22:00.663Z,98534.91
2022-09-17T19:24:29.638Z,98536.88
2022-09-17T19:26:59.283Z,98542.81
2022-09-17T19:29:27.007Z,98542.09
2022-09-17T19:31:55.569Z,98539.16
2022-09-17T19:34:24.854Z,98543.94
2022-09-17T19:36:52.978Z,98536.69
2022-09-17T19:39:19.957Z,98535.97
2022-09-17T19:41:46.682Z,98540.78
2022-09-17T19:44:16.456Z,98542.28
2022-09-17T19:46:46.408Z,98539.75
2022-09-17T19:49:14.768Z,98546.97
2022-09-17T19:51:42.234Z,98542.38
2022-09-17T19:54:10.369Z,98552.72
2022-09-17T19:56:37.406Z,98551.94
2022-09-17T19:59:06.190Z,98560.53
2022-09-17T20:01:36.606Z,98557.28
2022-09-17T20:04:07.734Z,98561.38
2022-09-17T20:06:36.008Z,98557.75
2022-09-17T20:09:03.236Z,98567.50
2022-09-17T20:11:31.116Z,98566.63
2022-09-17T20:14:08.120Z,98560.56
2022-09-17T20:16:37.735Z,98561.41
2022-09-17T20:19:07.132Z,98566.81
2022-09-17T20:21:35.551Z,98554.47
2022-09-17T20:24:06.780Z,98568.41
2022-09-17T20:26:34.273Z,98561.25
2022-09-17T20:29:01.195Z,98554.97
2022-09-17T20:31:30.246Z,98561.56
2022-09-17T20:34:00.163Z,98563.28
2022-09-17T20:36:31.219Z,98567.31
2022-09-17T20:39:12.392Z,98559.25
2022-09-17T20:41:48.299Z,98556.00
2022-09-17T20:44:18.296Z,98565.69
2022-09-17T20:46:47.392Z,98573.41
2022-09-17T20:49:14.861Z,98579.03
2022-09-17T20:51:41.948Z,98580.53
2022-09-17T20:54:10.186Z,98575.13
2022-09-17T20:56:36.944Z,98573.19
2022-09-17T20:59:13.801Z,98575.28
2022-09-17T21:01:45.424Z,98581.44
2022-09-17T21:04:17.102Z,98584.44
2022-09-17T21:06:44.720Z,98585.56
2022-09-17T21:09:16.077Z,98580.41
2022-09-17T21:11:44.568Z,98579.69
2022-09-17T21:14:13.231Z,98579.91
2022-09-17T21:16:40.691Z,98582.31
2022-09-17T21:19:17.479Z,98580.34
2022-09-17T21:21:45.082Z,98576.59
2022-09-17T21:24:12.547Z,98575.09
2022-09-17T21:26:40.155Z,98584.19
2022-09-17T21:29:10.605Z,98585.78
2022-09-17T21:31:40.277Z,98593.47
2022-09-17T21:34:11.456Z,98597.94
2022-09-17T21:36:40.548Z,98599.28
2022-09-17T21:39:14.254Z,98595.72
2022-09-17T21:41:49.732Z,98603.16
2022-09-17T21:44:17.491Z,98592.03
2022-09-17T21:46:44.434Z,98602.97
2022-09-17T21:49:14.036Z,98595.13
2022-09-17T21:51:43.760Z,98593.03
2022-09-17T21:54:15.635Z,98589.28
2022-09-17T21:56:42.604Z,98598.94
2022-09-17T21:59:12.804Z,98598.66
2022-09-17T22:01:44.015Z,98595.03
2022-09-17T22:04:13.713Z,98602.31
2022-09-17T22:06:43.493Z,98598.16
2022-09-17T22:09:24.736Z,98602.94
2022-09-17T22:11:55.677Z,98597.31
2022-09-17T22:14:26.455Z,98610.31
2022-09-17T22:16:58.378Z,98599.47
2022-09-17T22:19:27.716Z,98607.19
2022-09-17T22:21:57.624Z,98592.69
2022-09-17T22:24:28.256Z,98599.13
2022-09-17T22:26:58.210Z,98606.31
2022-09-17T22:29:28.745Z,98605.16
2022-09-17T22:31:57.915Z,98595.91
2022-09-17T22:34:26.588Z,98603.28
2022-09-17T22:36:54.966Z,98604.69
2022-09-17T22:39:25.115Z,98605.97
2022-09-17T22:41:52.124Z,98603.69
2022-09-17T22:44:21.461Z,98612.78
2022-09-17T22:46:51.442Z,98609.69
2022-09-17T22:49:20.042Z,98612.66
2022-09-17T22:51:48.703Z,98614.22
2022-09-17T22:54:18.449Z,98611.66
2022-09-17T22:56:47.335Z,98605.03
2022-09-17T22:59:14.678Z,98606.47
2022-09-17T23:01:42.282Z,98603.66
2022-09-17T23:04:10.392Z,98608.44
2022-09-17T23:06:40.350Z,98607.44
2022-09-17T23:09:09.845Z,98602.78
2022-09-17T23:11:41.301Z,98615.56
2022-09-17T23:14:13.133Z,98597.31
2022-09-17T23:16:46.132Z,98608.34
2022-09-17T23:19:13.549Z,98604.22
2022-09-17T23:21:41.052Z,98599.66
2022-09-17T23:24:12.189Z,98598.44
2022-09-17T23:26:39.799Z,98599.56
2022-09-17T23:29:06.684Z,98605.97
2022-09-17T23:31:35.329Z,98599.16
2022-09-17T23:34:03.775Z,98604.31
2022-09-17T23:36:32.977Z,98611.84
2022-09-17T23:39:00.615Z,98612.16
2022-09-17T23:41:34.846Z,98610.19
2022-09-17T23:44:04.705Z,98611.84
2022-09-17T23:46:34.956Z,98606.56
2022-09-17T23:49:03.995Z,98607.84
2022-09-17T23:51:32.085Z,98614.09
2022-09-17T23:54:00.226Z,98609.97
2022-09-17T23:56:29.102Z,98613.28
2022-09-17T23:58:56.835Z,98617.75
